Time,TemperatureF,DewpointF,PressureIn,WindDirection,WindDirectionDegrees,WindSpeedMPH,WindSpeedGustMPH,Humidity,HourlyPrecipIn,Conditions,Clouds,dailyrainin,SoftwareType,DateUTC
2013-02-04 00:00:00,20.3,2.4,29.77,West,273,0.0,0.0,45,0.00,,---,0.00,VWS V14.01,2013-02-04 05:00:00,
2013-02-04 00:01:00,20.3,2.4,29.77,West,273,0.0,0.0,45,0.00,,---,0.00,VWS V14.01,2013-02-04 05:01:00,
2013-02-04 00:02:00,20.3,2.4,29.77,West,273,0.0,0.0,45,0.00,,---,0.00,VWS V14.01,2013-02-04 05:02:00,
2013-02-04 00:03:00,20.3,2.4,29.77,West,273,0.0,0.0,45,0.00,,---,0.00,VWS V14.01,2013-02-04 05:03:00,
2013-02-04 00:08:00,20.3,2.4,29.77,West,273,0.0,0.0,45,0.00,,---,0.00,VWS V14.01,2013-02-04 05:08:00,
2013-02-04 00:13:00,20.7,2.7,29.77,West,273,0.0,3.6,45,0.00,,---,0.00,VWS V14.01,2013-02-04 05:13:00,
2013-02-04 00:18:00,21.0,3.0,29.77,West,273,0.0,3.1,45,0.00,,---,0.00,VWS V14.01,2013-02-04 05:18:00,
2013-02-04 00:23:00,21.2,3.2,29.77,West,273,0.0,2.7,45,0.00,,---,0.00,VWS V14.01,2013-02-04 05:23:00,
2013-02-04 00:28:00,21.4,3.3,29.77,West,273,2.7,3.1,45,0.00,,---,0.00,VWS V14.01,2013-02-04 05:28:00,
2013-02-04 00:33:00,21.6,3.5,29.77,West,273,0.0,2.7,45,0.00,,---,0.00,VWS V14.01,2013-02-04 05:33:00,
2013-02-04 00:38:00,21.6,3.5,29.77,West,273,0.0,2.7,45,0.00,,---,0.00,VWS V14.01,2013-02-04 05:38:00,
2013-02-04 00:43:00,21.7,3.7,29.77,West,273,0.0,2.7,45,0.00,,---,0.00,VWS V14.01,2013-02-04 05:43:00,
2013-02-04 00:48:00,21.9,3.8,29.77,West,273,3.1,3.6,45,0.00,,---,0.00,VWS V14.01,2013-02-04 05:48:00,
2013-02-04 00:53:00,21.9,3.8,29.77,West,273,0.0,3.6,45,0.00,,---,0.00,VWS V14.01,2013-02-04 05:53:00,
2013-02-04 00:58:00,22.1,4.0,29.77,West,273,0.0,4.0,45,0.00,,---,0.00,VWS V14.01,2013-02-04 05:58:00,
2013-02-04 01:03:00,22.1,4.0,29.77,West,273,0.0,4.0,45,0.00,,---,0.00,VWS V14.01,2013-02-04 06:03:00,
2013-02-04 01:08:00,22.1,3.5,29.77,West,273,2.7,4.5,44,0.00,,---,0.00,VWS V14.01,2013-02-04 06:08:00,
2013-02-04 01:13:00,22.3,3.7,29.77,West,273,0.0,4.5,44,0.00,,---,0.00,VWS V14.01,2013-02-04 06:13:00,
2013-02-04 01:18:00,22.3,3.7,29.77,West,273,3.6,4.0,44,0.00,,---,0.00,VWS V14.01,2013-02-04 06:18:00,
2013-02-04 01:23:00,22.1,3.5,29.77,West,271,2.7,4.5,44,0.00,,---,0.00,VWS V14.01,2013-02-04 06:23:00,
2013-02-04 01:28:00,22.1,3.5,29.77,West,271,0.0,3.6,44,0.00,,---,0.00,VWS V14.01,2013-02-04 06:28:00,
2013-02-04 01:33:00,22.1,4.0,29.77,West,269,0.0,4.5,45,0.00,,---,0.00,VWS V14.01,2013-02-04 06:33:00,
2013-02-04 01:38:00,22.1,4.0,29.77,West,269,3.1,4.9,45,0.00,,---,0.00,VWS V14.01,2013-02-04 06:38:00,
2013-02-04 01:43:00,22.1,4.0,29.77,West,269,3.6,3.6,45,0.00,,---,0.00,VWS V14.01,2013-02-04 06:43:00,
2013-02-04 01:48:00,22.1,4.5,29.77,West,269,0.0,4.5,46,0.00,,---,0.00,VWS V14.01,2013-02-04 06:48:00,
2013-02-04 01:53:00,22.1,4.5,29.77,West,269,0.0,5.4,46,0.00,,---,0.00,VWS V14.01,2013-02-04 06:53:00,
2013-02-04 01:58:00,22.1,4.5,29.77,WSW,240,4.0,6.3,46,0.00,,---,0.00,VWS V14.01,2013-02-04 06:58:00,
2013-02-04 02:03:00,22.1,5.0,29.77,SW,235,4.0,5.8,47,0.00,,---,0.00,VWS V14.01,2013-02-04 07:03:00,
2013-02-04 02:08:00,22.3,5.1,29.77,SW,222,4.0,6.7,47,0.00,,---,0.00,VWS V14.01,2013-02-04 07:08:00,
2013-02-04 02:13:00,22.3,5.6,29.77,SW,223,2.7,4.5,48,0.00,,---,0.00,VWS V14.01,2013-02-04 07:13:00,
2013-02-04 02:18:00,22.3,5.6,29.77,SW,223,0.0,4.0,48,0.00,,---,0.00,VWS V14.01,2013-02-04 07:18:00,
2013-02-04 02:23:00,22.3,5.6,29.77,WSW,237,4.5,5.4,48,0.00,,---,0.00,VWS V14.01,2013-02-04 07:23:00,
2013-02-04 02:28:00,22.3,5.6,29.77,NW,315,4.0,5.4,48,0.00,,---,0.00,VWS V14.01,2013-02-04 07:28:00,
2013-02-04 02:33:00,22.1,5.9,29.77,West,259,0.0,6.7,49,0.00,,---,0.00,VWS V14.01,2013-02-04 07:33:00,
2013-02-04 02:38:00,22.1,5.9,29.77,WSW,257,4.9,5.4,49,0.00,,---,0.00,VWS V14.01,2013-02-04 07:38:00,
2013-02-04 02:44:00,22.1,5.9,29.77,WSW,256,3.6,4.9,49,0.00,,---,0.00,VWS V14.01,2013-02-04 07:44:00,
2013-02-04 02:49:00,22.1,5.9,29.77,WSW,256,0.0,5.4,49,0.00,,---,0.00,VWS V14.01,2013-02-04 07:49:00,
2013-02-04 02:54:00,22.1,6.3,29.77,West,281,0.0,5.4,50,0.00,,---,0.00,VWS V14.01,2013-02-04 07:54:00,
2013-02-04 02:59:00,21.9,6.1,29.77,WNW,288,4.5,6.3,50,0.00,,---,0.00,VWS V14.01,2013-02-04 07:59:00,
2013-02-04 03:04:00,21.9,6.1,29.77,WNW,286,4.9,5.8,50,0.00,,---,0.00,VWS V14.01,2013-02-04 08:04:00,
2013-02-04 03:09:00,22.1,6.3,29.77,WNW,285,4.5,4.9,50,0.00,,---,0.00,VWS V14.01,2013-02-04 08:09:00,
2013-02-04 03:14:00,22.3,6.5,29.77,WNW,291,6.7,12.1,50,0.00,,---,0.00,VWS V14.01,2013-02-04 08:14:00,
2013-02-04 03:19:00,22.5,7.1,29.77,WNW,294,8.3,11.6,51,0.00,,---,0.00,VWS V14.01,2013-02-04 08:19:00,
2013-02-04 03:24:00,22.6,7.2,29.77,NW,304,4.9,12.1,51,0.00,,---,0.00,VWS V14.01,2013-02-04 08:24:00,
2013-02-04 03:29:00,22.6,6.8,29.77,NW,318,3.1,15.9,50,0.00,,---,0.00,VWS V14.01,2013-02-04 08:29:00,
2013-02-04 03:34:00,22.6,6.8,29.77,NW,314,4.0,9.6,50,0.00,,---,0.00,VWS V14.01,2013-02-04 08:34:00,
2013-02-04 03:39:00,22.6,6.8,29.77,NW,304,3.6,11.0,50,0.00,,---,0.00,VWS V14.01,2013-02-04 08:39:00,
2013-02-04 03:44:00,22.6,6.8,29.77,West,261,4.5,14.3,50,0.00,,---,0.00,VWS V14.01,2013-02-04 08:44:00,
2013-02-04 03:49:00,22.8,7.0,29.77,WNW,293,4.9,15.9,50,0.00,,---,0.00,VWS V14.01,2013-02-04 08:49:00,
2013-02-04 03:54:00,22.8,6.5,29.77,WSW,254,11.2,11.2,49,0.00,,---,0.00,VWS V14.01,2013-02-04 08:54:00,
2013-02-04 03:59:00,23.0,6.7,29.77,WSW,248,3.6,11.2,49,0.00,,---,0.00,VWS V14.01,2013-02-04 08:59:00,
2013-02-04 04:04:00,23.0,6.7,29.77,NW,312,4.0,9.2,49,0.00,,---,0.00,VWS V14.01,2013-02-04 09:04:00,
2013-02-04 04:09:00,23.0,6.2,29.80,West,262,8.3,8.3,48,0.00,,---,0.00,VWS V14.01,2013-02-04 09:09:00,
2013-02-04 04:14:00,23.0,6.2,29.80,WSW,252,4.0,8.7,48,0.00,,---,0.00,VWS V14.01,2013-02-04 09:14:00,
2013-02-04 04:19:00,23.0,6.2,29.80,NW,305,0.0,9.2,48,0.00,,---,0.00,VWS V14.01,2013-02-04 09:19:00,
2013-02-04 04:24:00,22.8,6.1,29.80,WNW,286,0.0,7.8,48,0.00,,---,0.00,VWS V14.01,2013-02-04 09:24:00,
2013-02-04 04:29:00,22.6,5.5,29.80,West,271,9.6,11.0,47,0.00,,---,0.00,VWS V14.01,2013-02-04 09:29:00,
2013-02-04 04:34:00,22.5,5.3,29.80,NW,318,4.5,10.1,47,0.00,,---,0.00,VWS V14.01,2013-02-04 09:34:00,
2013-02-04 04:39:00,22.5,5.3,29.80,NW,307,5.4,10.1,47,0.00,,---,0.00,VWS V14.01,2013-02-04 09:39:00,
2013-02-04 04:44:00,22.3,4.7,29.80,WNW,285,7.4,9.2,46,0.00,,---,0.00,VWS V14.01,2013-02-04 09:44:00,
2013-02-04 04:49:00,22.1,4.5,29.80,West,271,4.9,11.2,46,0.00,,---,0.00,VWS V14.01,2013-02-04 09:49:00,
2013-02-04 04:54:00,22.1,4.5,29.80,NW,304,8.3,9.2,46,0.00,,---,0.00,VWS V14.01,2013-02-04 09:54:00,
2013-02-04 04:59:00,21.9,4.3,29.80,WNW,289,6.3,8.3,46,0.00,,---,0.00,VWS V14.01,2013-02-04 09:59:00,
2013-02-04 05:04:00,21.9,3.8,29.80,WNW,302,5.4,13.4,45,0.00,,---,0.00,VWS V14.01,2013-02-04 10:04:00,
2013-02-04 05:09:00,21.9,3.8,29.83,WNW,297,5.4,11.2,45,0.00,,---,0.00,VWS V14.01,2013-02-04 10:09:00,
2013-02-04 05:14:00,21.9,3.8,29.83,NW,315,7.8,10.5,45,0.00,,---,0.00,VWS V14.01,2013-02-04 10:14:00,
2013-02-04 05:19:00,21.7,3.2,29.83,West,271,4.0,10.5,44,0.00,,---,0.00,VWS V14.01,2013-02-04 10:19:00,
2013-02-04 05:24:00,21.7,3.2,29.83,West,272,13.4,15.9,44,0.00,,---,0.00,VWS V14.01,2013-02-04 10:24:00,
2013-02-04 05:29:00,21.7,2.7,29.83,WNW,284,9.6,13.4,43,0.00,,---,0.00,VWS V14.01,2013-02-04 10:29:00,
2013-02-04 05:34:00,21.7,2.7,29.83,NW,306,8.3,14.8,43,0.00,,---,0.00,VWS V14.01,2013-02-04 10:34:00,
2013-02-04 05:39:00,21.6,2.0,29.83,West,274,3.1,12.1,42,0.00,,---,0.00,VWS V14.01,2013-02-04 10:39:00,
2013-02-04 05:44:00,21.4,0.8,29.83,NW,313,13.4,15.4,40,0.00,,---,0.00,VWS V14.01,2013-02-04 10:44:00,
2013-02-04 05:49:00,21.4,-0.3,29.83,NW,324,0.0,17.2,38,0.00,,---,0.00,VWS V14.01,2013-02-04 10:49:00,
2013-02-04 05:54:00,21.4,-0.8,29.83,WNW,286,7.4,14.8,37,0.00,,---,0.00,VWS V14.01,2013-02-04 10:54:00,
2013-02-04 05:59:00,21.2,-1.0,29.83,WNW,298,0.0,15.4,37,0.00,,---,0.00,VWS V14.01,2013-02-04 10:59:00,
2013-02-04 06:04:00,21.2,-1.6,29.83,West,259,11.2,18.1,36,0.00,,---,0.00,VWS V14.01,2013-02-04 11:04:00,
2013-02-04 06:09:00,21.2,-1.6,29.83,WNW,286,0.0,13.0,36,0.00,,---,0.00,VWS V14.01,2013-02-04 11:09:00,
2013-02-04 06:14:00,21.0,-2.3,29.83,West,274,14.3,16.3,35,0.00,,---,0.00,VWS V14.01,2013-02-04 11:14:00,
2013-02-04 06:19:00,20.8,-2.5,29.83,NW,318,3.1,13.0,35,0.00,,---,0.00,VWS V14.01,2013-02-04 11:19:00,
2013-02-04 06:24:00,20.8,-2.5,29.83,NNW,332,5.8,16.3,35,0.00,,---,0.00,VWS V14.01,2013-02-04 11:24:00,
2013-02-04 06:29:00,20.7,-2.7,29.83,NW,320,10.5,14.3,35,0.00,,---,0.00,VWS V14.01,2013-02-04 11:29:00,
2013-02-04 06:34:00,20.7,-2.7,29.83,WNW,294,11.2,14.3,35,0.00,,---,0.00,VWS V14.01,2013-02-04 11:34:00,
2013-02-04 06:39:00,20.5,-3.4,29.85,WNW,287,7.4,15.4,34,0.00,,---,0.00,VWS V14.01,2013-02-04 11:39:00,
2013-02-04 06:44:00,20.5,-3.4,29.85,WNW,301,8.3,13.0,34,0.00,,---,0.00,VWS V14.01,2013-02-04 11:44:00,
2013-02-04 06:49:00,20.5,-3.4,29.85,West,271,6.3,14.8,34,0.00,,---,0.00,VWS V14.01,2013-02-04 11:49:00,
2013-02-04 06:54:00,20.3,-3.6,29.85,NW,306,3.1,11.6,34,0.00,,---,0.00,VWS V14.01,2013-02-04 11:54:00,
2013-02-04 06:59:00,20.3,-3.0,29.85,WSW,257,12.1,13.4,35,0.00,,---,0.00,VWS V14.01,2013-02-04 11:59:00,
2013-02-04 07:04:00,20.1,-3.1,29.85,WNW,298,6.7,12.1,35,0.00,,---,0.00,VWS V14.01,2013-02-04 12:04:00,
2013-02-04 07:09:00,20.1,-3.1,29.85,WNW,298,11.2,13.4,35,0.00,,---,0.00,VWS V14.01,2013-02-04 12:09:00,
2013-02-04 07:14:00,20.1,-3.1,29.85,WNW,298,6.7,19.5,35,0.00,,---,0.00,VWS V14.01,2013-02-04 12:14:00,
2013-02-04 07:19:00,20.1,-3.7,29.85,WNW,283,11.6,13.9,34,0.00,,---,0.00,VWS V14.01,2013-02-04 12:19:00,
2013-02-04 07:24:00,20.1,-3.7,29.85,West,280,8.3,13.4,34,0.00,,---,0.00,VWS V14.01,2013-02-04 12:24:00,
2013-02-04 07:29:00,20.3,-3.6,29.85,WNW,284,11.0,15.2,34,0.00,,---,0.00,VWS V14.01,2013-02-04 12:29:00,
2013-02-04 07:34:00,20.3,-3.6,29.85,WNW,287,5.8,13.9,34,0.00,,---,0.00,VWS V14.01,2013-02-04 12:34:00,
2013-02-04 07:39:00,20.5,-3.4,29.85,NW,311,12.1,18.1,34,0.00,,---,0.00,VWS V14.01,2013-02-04 12:39:00,
2013-02-04 07:44:00,20.5,-3.4,29.85,WNW,299,7.8,19.9,34,0.00,,---,0.00,VWS V14.01,2013-02-04 12:44:00,
2013-02-04 07:49:00,21.0,-2.9,29.85,NW,323,6.7,24.4,34,0.00,,---,0.00,VWS V14.01,2013-02-04 12:49:00,
2013-02-04 07:54:00,21.4,-3.2,29.85,NW,321,12.5,21.9,33,0.00,,---,0.00,VWS V14.01,2013-02-04 12:54:00,
2013-02-04 07:59:00,21.7,-2.9,29.85,WNW,299,6.9,15.2,33,0.00,,---,0.00,VWS V14.01,2013-02-04 12:59:00,
2013-02-04 08:04:00,22.5,-2.3,29.85,NNW,329,6.7,13.9,33,0.00,,---,0.00,VWS V14.01,2013-02-04 13:04:00,
2013-02-04 08:09:00,23.0,-1.8,29.85,NNW,333,9.2,19.9,33,0.00,,---,0.00,VWS V14.01,2013-02-04 13:09:00,
2013-02-04 08:14:00,23.2,-2.3,29.85,NW,316,3.6,18.1,32,0.00,,---,0.00,VWS V14.01,2013-02-04 13:14:00,
2013-02-04 08:19:00,23.0,-2.5,29.85,SW,234,6.9,21.5,32,0.00,,---,0.00,VWS V14.01,2013-02-04 13:19:00,
2013-02-04 08:24:00,23.2,-2.3,29.85,WNW,295,10.5,17.2,32,0.00,,---,0.00,VWS V14.01,2013-02-04 13:24:00,
2013-02-04 08:29:00,23.2,-2.3,29.85,WNW,294,8.3,19.9,32,0.00,,---,0.00,VWS V14.01,2013-02-04 13:29:00,
2013-02-04 08:34:00,23.5,-3.3,29.85,West,280,11.0,19.9,30,0.00,,---,0.00,VWS V14.01,2013-02-04 13:34:00,
2013-02-04 08:39:00,23.5,-3.3,29.85,WNW,303,7.8,15.9,30,0.00,,---,0.00,VWS V14.01,2013-02-04 13:39:00,
2013-02-04 08:44:00,23.4,-3.5,29.85,WNW,293,9.2,16.8,30,0.00,,---,0.00,VWS V14.01,2013-02-04 13:44:00,
2013-02-04 08:49:00,23.5,-3.3,29.85,WNW,284,11.0,18.1,30,0.00,,---,0.00,VWS V14.01,2013-02-04 13:49:00,
2013-02-04 08:54:00,23.5,-3.3,29.88,WSW,242,8.7,17.2,30,0.00,,---,0.00,VWS V14.01,2013-02-04 13:54:00,
2013-02-04 08:59:00,23.5,-5.5,29.88,WSW,240,7.8,16.3,27,0.00,,---,0.00,VWS V14.01,2013-02-04 13:59:00,
2013-02-04 09:04:00,23.9,-5.2,29.88,SW,231,8.3,13.0,27,0.00,,---,0.00,VWS V14.01,2013-02-04 14:04:00,
2013-02-04 09:09:00,23.9,-5.2,29.88,WSW,238,7.4,11.2,27,0.00,,---,0.00,VWS V14.01,2013-02-04 14:09:00,
2013-02-04 09:14:00,24.1,-5.1,29.88,West,268,5.4,17.2,27,0.00,,---,0.00,VWS V14.01,2013-02-04 14:14:00,
2013-02-04 09:19:00,24.8,-4.4,29.88,WNW,292,10.1,13.9,27,0.00,,---,0.00,VWS V14.01,2013-02-04 14:19:00,
2013-02-04 09:24:00,25.3,-4.0,29.88,NW,324,4.5,13.9,27,0.00,,---,0.00,VWS V14.01,2013-02-04 14:24:00,
2013-02-04 09:29:00,25.5,-3.8,29.88,West,266,7.4,17.7,27,0.00,,---,0.00,VWS V14.01,2013-02-04 14:29:00,
2013-02-04 09:34:00,25.9,-4.3,29.88,West,260,10.5,15.2,26,0.00,,---,0.00,VWS V14.01,2013-02-04 14:34:00,
2013-02-04 09:39:00,26.2,-4.0,29.88,WNW,297,4.0,21.0,26,0.00,,---,0.00,VWS V14.01,2013-02-04 14:39:00,
2013-02-04 09:44:00,26.6,-5.3,29.88,WNW,299,5.4,16.3,24,0.00,,---,0.00,VWS V14.01,2013-02-04 14:44:00,
2013-02-04 09:49:00,27.3,-4.7,29.88,NNW,332,9.2,20.1,24,0.00,,---,0.00,VWS V14.01,2013-02-04 14:49:00,
2013-02-04 09:54:00,27.5,-5.4,29.88,WNW,292,7.8,20.6,23,0.00,,---,0.00,VWS V14.01,2013-02-04 14:54:00,
2013-02-04 09:59:00,28.6,-4.5,29.88,WNW,294,11.2,15.2,23,0.00,,---,0.00,VWS V14.01,2013-02-04 14:59:00,
2013-02-04 10:04:00,29.1,-4.1,29.88,West,267,12.5,15.9,23,0.00,,---,0.00,VWS V14.01,2013-02-04 15:04:00,
2013-02-04 10:09:00,29.3,-3.9,29.88,NW,306,4.5,19.5,23,0.00,,---,0.00,VWS V14.01,2013-02-04 15:09:00,
2013-02-04 10:14:00,29.8,-3.4,29.88,WNW,282,7.4,13.9,23,0.00,,---,0.00,VWS V14.01,2013-02-04 15:14:00,
2013-02-04 10:19:00,30.2,-3.1,29.88,WNW,289,14.3,19.5,23,0.00,,---,0.00,VWS V14.01,2013-02-04 15:19:00,
2013-02-04 10:24:00,30.6,-5.7,29.88,WSW,251,9.2,18.6,20,0.00,,---,0.00,VWS V14.01,2013-02-04 15:24:00,
2013-02-04 10:29:00,30.9,-5.4,29.88,WNW,282,9.6,17.7,20,0.00,,---,0.00,VWS V14.01,2013-02-04 15:29:00,
2013-02-04 10:34:00,30.9,-5.4,29.88,WNW,302,15.2,15.2,20,0.00,,---,0.00,VWS V14.01,2013-02-04 15:34:00,
2013-02-04 10:39:00,30.2,-6.0,29.88,WNW,289,4.0,20.1,20,0.00,,---,0.00,VWS V14.01,2013-02-04 15:39:00,
2013-02-04 10:44:00,30.7,-5.6,29.88,West,270,7.8,13.0,20,0.00,,---,0.00,VWS V14.01,2013-02-04 15:44:00,
2013-02-04 10:49:00,30.0,-6.2,29.88,WNW,299,6.3,13.0,20,0.00,,---,0.00,VWS V14.01,2013-02-04 15:49:00,
2013-02-04 10:54:00,30.4,-5.9,29.88,NW,306,3.6,9.6,20,0.00,,---,0.00,VWS V14.01,2013-02-04 15:54:00,
2013-02-04 10:59:00,30.7,-5.6,29.88,West,276,13.4,13.9,20,0.00,,---,0.00,VWS V14.01,2013-02-04 15:59:00,
2013-02-04 11:04:00,31.3,-5.1,29.88,NNE,22,2.7,14.8,20,0.00,,---,0.00,VWS V14.01,2013-02-04 16:04:00,
2013-02-04 11:09:00,30.7,-7.7,29.88,West,266,7.8,15.2,18,0.00,,---,0.00,VWS V14.01,2013-02-04 16:09:00,
2013-02-04 11:14:00,30.7,-5.6,29.88,West,279,6.3,22.4,20,0.00,,---,0.00,VWS V14.01,2013-02-04 16:14:00,
2013-02-04 11:19:00,30.6,-7.9,29.88,NW,320,4.0,21.9,18,0.00,,---,0.00,VWS V14.01,2013-02-04 16:19:00,
2013-02-04 11:24:00,30.0,-8.3,29.88,West,272,6.3,10.1,18,0.00,,---,0.00,VWS V14.01,2013-02-04 16:24:00,
2013-02-04 11:29:00,30.2,-8.2,29.88,SW,234,6.3,14.3,18,0.00,,---,0.00,VWS V14.01,2013-02-04 16:29:00,
2013-02-04 11:34:00,30.4,-8.0,29.88,NW,322,13.4,15.9,18,0.00,,---,0.00,VWS V14.01,2013-02-04 16:34:00,
2013-02-04 11:39:00,31.3,-5.1,29.88,North,356,9.6,19.9,20,0.00,,---,0.00,VWS V14.01,2013-02-04 16:39:00,
2013-02-04 11:44:00,30.9,-7.6,29.88,NE,38,0.0,19.5,18,0.00,,---,0.00,VWS V14.01,2013-02-04 16:44:00,
2013-02-04 11:49:00,28.9,-9.2,29.88,NW,307,6.9,15.4,18,0.00,,---,0.00,VWS V14.01,2013-02-04 16:49:00,
2013-02-04 11:55:00,30.4,-8.0,29.88,West,272,7.4,13.9,18,0.00,,---,0.00,VWS V14.01,2013-02-04 16:55:00,
2013-02-04 11:59:00,30.2,-8.2,29.88,NW,313,4.0,10.1,18,0.00,,---,0.00,VWS V14.01,2013-02-04 16:59:00,
2013-02-04 12:04:00,29.5,-8.8,29.88,West,259,10.5,18.6,18,0.00,,---,0.00,VWS V14.01,2013-02-04 17:04:00,
2013-02-04 12:09:00,28.8,-9.4,29.88,NW,312,6.3,15.4,18,0.00,,---,0.00,VWS V14.01,2013-02-04 17:09:00,
2013-02-04 12:14:00,30.2,-8.2,29.88,SW,233,4.9,15.9,18,0.00,,---,0.00,VWS V14.01,2013-02-04 17:14:00,
2013-02-04 12:19:00,30.0,-8.3,29.88,WNW,302,8.7,13.9,18,0.00,,---,0.00,VWS V14.01,2013-02-04 17:19:00,
2013-02-04 12:24:00,30.0,-8.3,29.85,West,277,14.3,14.3,18,0.00,,---,0.00,VWS V14.01,2013-02-04 17:24:00,
2013-02-04 12:29:00,30.2,-8.2,29.85,WNW,287,4.0,16.3,18,0.00,,---,0.00,VWS V14.01,2013-02-04 17:29:00,
2013-02-04 12:34:00,30.4,-8.0,29.85,WNW,298,4.5,11.2,18,0.00,,---,0.00,VWS V14.01,2013-02-04 17:34:00,
2013-02-04 12:39:00,30.0,-8.3,29.85,WSW,237,6.3,13.9,18,0.00,,---,0.00,VWS V14.01,2013-02-04 17:39:00,
2013-02-04 12:44:00,29.8,-8.5,29.85,SW,235,11.6,16.8,18,0.00,,---,0.00,VWS V14.01,2013-02-04 17:44:00,
2013-02-04 12:49:00,29.3,-8.9,29.85,WNW,290,6.7,14.3,18,0.00,,---,0.00,VWS V14.01,2013-02-04 17:49:00,
2013-02-04 12:54:00,29.7,-8.6,29.85,WNW,298,5.8,15.4,18,0.00,,---,0.00,VWS V14.01,2013-02-04 17:54:00,
2013-02-04 12:59:00,29.1,-9.1,29.85,NW,307,11.0,18.1,18,0.00,,---,0.00,VWS V14.01,2013-02-04 17:59:00,
2013-02-04 13:04:00,29.1,-9.1,29.85,NW,317,4.5,16.3,18,0.00,,---,0.00,VWS V14.01,2013-02-04 18:04:00,
2013-02-04 13:09:00,30.2,-8.2,29.85,WSW,251,7.4,13.4,18,0.00,,---,0.00,VWS V14.01,2013-02-04 18:09:00,
2013-02-04 13:14:00,32.0,-6.7,29.85,West,264,11.0,13.9,18,0.00,,---,0.00,VWS V14.01,2013-02-04 18:14:00,
2013-02-04 13:19:00,32.7,-6.1,29.85,West,275,8.3,16.3,18,0.00,,---,0.00,VWS V14.01,2013-02-04 18:19:00,
2013-02-04 13:24:00,32.7,-6.1,29.85,West,278,17.7,23.3,18,0.00,,---,0.00,VWS V14.01,2013-02-04 18:24:00,
2013-02-04 13:29:00,31.8,-6.8,29.85,WSW,245,4.5,17.7,18,0.00,,---,0.00,VWS V14.01,2013-02-04 18:29:00,
2013-02-04 13:34:00,32.4,-6.4,29.85,West,261,4.5,9.6,18,0.00,,---,0.00,VWS V14.01,2013-02-04 18:34:00,
2013-02-04 13:39:00,32.7,-6.1,29.85,WSW,252,9.6,15.4,18,0.00,,---,0.00,VWS V14.01,2013-02-04 18:39:00,
2013-02-04 13:44:00,31.6,-7.0,29.85,WSW,258,6.3,20.6,18,0.00,,---,0.00,VWS V14.01,2013-02-04 18:44:00,
2013-02-04 13:49:00,30.6,-7.9,29.85,WNW,299,8.3,18.1,18,0.00,,---,0.00,VWS V14.01,2013-02-04 18:49:00,
2013-02-04 13:54:00,29.7,-8.6,29.85,WSW,247,3.1,18.6,18,0.00,,---,0.00,VWS V14.01,2013-02-04 18:54:00,
2013-02-04 13:59:00,29.8,-8.5,29.85,WNW,291,13.0,16.8,18,0.00,,---,0.00,VWS V14.01,2013-02-04 18:59:00,
2013-02-04 14:04:00,29.7,-8.6,29.85,NW,321,7.4,21.0,18,0.00,,---,0.00,VWS V14.01,2013-02-04 19:04:00,
2013-02-04 14:09:00,30.2,-8.2,29.85,WSW,250,6.3,13.9,18,0.00,,---,0.00,VWS V14.01,2013-02-04 19:09:00,
2013-02-04 14:14:00,30.9,-7.6,29.85,North,356,4.5,14.8,18,0.00,,---,0.00,VWS V14.01,2013-02-04 19:14:00,
2013-02-04 14:19:00,30.4,-8.0,29.85,North,351,4.9,16.8,18,0.00,,---,0.00,VWS V14.01,2013-02-04 19:19:00,
2013-02-04 14:24:00,30.2,-8.2,29.85,WNW,291,13.9,17.2,18,0.00,,---,0.00,VWS V14.01,2013-02-04 19:24:00,
2013-02-04 14:29:00,30.9,-7.6,29.85,NW,314,0.0,17.2,18,0.00,,---,0.00,VWS V14.01,2013-02-04 19:29:00,
2013-02-04 14:34:00,31.1,-7.4,29.85,WSW,238,6.3,16.3,18,0.00,,---,0.00,VWS V14.01,2013-02-04 19:34:00,
2013-02-04 14:39:00,30.9,-7.6,29.85,SW,236,6.3,18.1,18,0.00,,---,0.00,VWS V14.01,2013-02-04 19:39:00,
2013-02-04 14:44:00,30.9,-7.6,29.85,WNW,284,8.3,15.2,18,0.00,,---,0.00,VWS V14.01,2013-02-04 19:44:00,
2013-02-04 14:49:00,30.6,-7.9,29.85,NW,314,8.7,16.3,18,0.00,,---,0.00,VWS V14.01,2013-02-04 19:49:00,
2013-02-04 14:54:00,29.7,-8.6,29.85,NW,305,6.9,16.8,18,0.00,,---,0.00,VWS V14.01,2013-02-04 19:54:00,
2013-02-04 14:59:00,30.2,-8.2,29.85,WNW,301,4.9,12.1,18,0.00,,---,0.00,VWS V14.01,2013-02-04 19:59:00,
2013-02-04 15:04:00,30.7,-7.7,29.85,NW,310,6.3,16.8,18,0.00,,---,0.00,VWS V14.01,2013-02-04 20:04:00,
2013-02-04 15:09:00,30.9,-7.6,29.85,WNW,294,14.8,17.7,18,0.00,,---,0.00,VWS V14.01,2013-02-04 20:09:00,
2013-02-04 15:15:00,30.4,-8.0,29.85,WNW,300,6.7,6.7,18,0.00,,---,0.00,VWS V14.01,2013-02-04 20:15:00,
2013-02-04 15:20:00,29.5,-8.8,29.85,NW,305,6.9,8.3,18,0.00,,---,0.00,VWS V14.01,2013-02-04 20:20:00,
2013-02-04 15:25:00,29.5,-8.8,29.85,West,274,4.9,4.9,18,0.00,,---,0.00,VWS V14.01,2013-02-04 20:25:00,
2013-02-04 15:30:00,30.0,-8.3,29.85,SW,216,6.7,6.9,18,0.00,,---,0.00,VWS V14.01,2013-02-04 20:30:00,
2013-02-04 15:35:00,30.2,-8.2,29.85,WNW,285,11.0,11.0,18,0.00,,---,0.00,VWS V14.01,2013-02-04 20:35:00,
2013-02-04 15:40:00,30.2,-8.2,29.85,WNW,287,10.1,13.0,18,0.00,,---,0.00,VWS V14.01,2013-02-04 20:40:00,
2013-02-04 15:45:00,29.8,-8.5,29.85,SW,227,4.9,7.8,18,0.00,,---,0.00,VWS V14.01,2013-02-04 20:45:00,
2013-02-04 15:50:00,29.8,-8.5,29.85,NW,311,6.9,11.0,18,0.00,,---,0.00,VWS V14.01,2013-02-04 20:50:00,
2013-02-04 15:55:00,30.4,-8.0,29.85,WNW,288,6.7,6.7,18,0.00,,---,0.00,VWS V14.01,2013-02-04 20:55:00,
2013-02-04 16:00:00,29.8,-8.5,29.85,West,276,6.9,8.3,18,0.00,,---,0.00,VWS V14.01,2013-02-04 21:00:00,
2013-02-04 16:05:00,29.8,-8.5,29.85,West,276,9.6,11.2,18,0.00,,---,0.00,VWS V14.01,2013-02-04 21:05:00,
2013-02-04 16:10:00,29.7,-8.6,29.85,WSW,251,5.8,8.7,18,0.00,,---,0.00,VWS V14.01,2013-02-04 21:10:00,
2013-02-04 16:15:00,29.3,-8.9,29.85,WSW,238,10.1,12.5,18,0.00,,---,0.00,VWS V14.01,2013-02-04 21:15:00,
2013-02-04 16:20:00,29.1,-9.1,29.85,WSW,255,8.7,11.0,18,0.00,,---,0.00,VWS V14.01,2013-02-04 21:20:00,
2013-02-04 16:25:00,28.9,-9.2,29.85,WNW,301,3.6,7.8,18,0.00,,---,0.00,VWS V14.01,2013-02-04 21:25:00,
2013-02-04 16:30:00,28.6,-9.5,29.85,West,280,10.1,15.4,18,0.00,,---,0.00,VWS V14.01,2013-02-04 21:30:00,
2013-02-04 16:35:00,28.4,-9.7,29.85,WNW,300,9.6,14.3,18,0.00,,---,0.00,VWS V14.01,2013-02-04 21:35:00,
2013-02-04 16:40:00,28.0,-10.0,29.85,WSW,240,5.4,5.4,18,0.00,,---,0.00,VWS V14.01,2013-02-04 21:40:00,
2013-02-04 16:45:00,28.0,-10.0,29.85,NW,319,7.4,11.0,18,0.00,,---,0.00,VWS V14.01,2013-02-04 21:45:00,
2013-02-04 16:50:00,27.9,-10.1,29.85,NW,316,7.8,8.7,18,0.00,,---,0.00,VWS V14.01,2013-02-04 21:50:00,
2013-02-04 16:55:00,27.5,-10.4,29.88,WSW,253,5.4,5.4,18,0.00,,---,0.00,VWS V14.01,2013-02-04 21:55:00,
2013-02-04 17:00:00,27.1,-9.6,29.88,WNW,293,5.4,7.8,19,0.00,,---,0.00,VWS V14.01,2013-02-04 22:00:00,
2013-02-04 17:05:00,27.0,-9.8,29.88,NNW,338,10.5,11.2,19,0.00,,---,0.00,VWS V14.01,2013-02-04 22:05:00,
2013-02-04 17:10:00,26.6,-10.1,29.88,NW,322,6.9,9.6,19,0.00,,---,0.00,VWS V14.01,2013-02-04 22:10:00,
2013-02-04 17:15:00,26.4,-10.2,29.88,West,274,10.1,11.6,19,0.00,,---,0.00,VWS V14.01,2013-02-04 22:15:00,
2013-02-04 17:20:00,26.2,-10.4,29.88,WNW,300,9.2,12.5,19,0.00,,---,0.00,VWS V14.01,2013-02-04 22:20:00,
2013-02-04 17:25:00,26.1,-10.5,29.88,West,263,0.0,0.0,19,0.00,,---,0.00,VWS V14.01,2013-02-04 22:25:00,
2013-02-04 17:30:00,25.9,-10.7,29.88,WNW,295,4.0,6.3,19,0.00,,---,0.00,VWS V14.01,2013-02-04 22:30:00,
2013-02-04 17:35:00,25.7,-10.9,29.88,WNW,285,5.8,7.4,19,0.00,,---,0.00,VWS V14.01,2013-02-04 22:35:00,
2013-02-04 17:40:00,25.5,-11.0,29.88,WNW,300,5.8,6.9,19,0.00,,---,0.00,VWS V14.01,2013-02-04 22:40:00,
2013-02-04 17:45:00,25.5,-11.0,29.88,WNW,302,2.7,7.4,19,0.00,,---,0.00,VWS V14.01,2013-02-04 22:45:00,
2013-02-04 17:50:00,25.3,-11.1,29.88,WNW,297,3.1,5.4,19,0.00,,---,0.00,VWS V14.01,2013-02-04 22:50:00,
2013-02-04 17:55:00,25.3,-11.1,29.88,WNW,300,2.7,5.4,19,0.00,,---,0.00,VWS V14.01,2013-02-04 22:55:00,
2013-02-04 18:00:00,25.2,-11.3,29.88,NW,309,8.3,8.3,19,0.00,,---,0.00,VWS V14.01,2013-02-04 23:00:00,
2013-02-04 18:05:00,25.2,-11.3,29.88,NW,315,6.9,14.8,19,0.00,,---,0.00,VWS V14.01,2013-02-04 23:05:00,
2013-02-04 18:10:00,25.0,-11.4,29.88,North,351,3.6,10.1,19,0.00,,---,0.00,VWS V14.01,2013-02-04 23:10:00,
2013-02-04 18:15:00,25.0,-11.4,29.88,NW,313,4.5,13.4,19,0.00,,---,0.00,VWS V14.01,2013-02-04 23:15:00,
2013-02-04 18:20:00,25.0,-11.4,29.88,West,277,11.6,12.5,19,0.00,,---,0.00,VWS V14.01,2013-02-04 23:20:00,
2013-02-04 18:25:00,25.0,-11.4,29.91,NW,320,4.0,14.8,19,0.00,,---,0.00,VWS V14.01,2013-02-04 23:25:00,
2013-02-04 18:30:00,25.0,-11.4,29.91,West,263,6.9,6.9,19,0.00,,---,0.00,VWS V14.01,2013-02-04 23:30:00,
2013-02-04 18:35:00,25.0,-11.4,29.91,WNW,292,6.9,8.7,19,0.00,,---,0.00,VWS V14.01,2013-02-04 23:35:00,
2013-02-04 18:40:00,25.0,-11.4,29.91,WSW,251,2.7,5.4,19,0.00,,---,0.00,VWS V14.01,2013-02-04 23:40:00,
2013-02-04 18:45:00,25.0,-11.4,29.91,NW,304,4.5,5.8,19,0.00,,---,0.00,VWS V14.01,2013-02-04 23:45:00,
2013-02-04 18:50:00,25.0,-11.4,29.91,WNW,300,7.4,8.7,19,0.00,,---,0.00,VWS V14.01,2013-02-04 23:50:00,
2013-02-04 18:55:00,25.0,-11.4,29.91,WNW,301,4.5,5.8,19,0.00,,---,0.00,VWS V14.01,2013-02-04 23:55:00,
2013-02-04 19:00:00,25.0,-11.4,29.91,WNW,302,3.6,3.6,19,0.00,,---,0.00,VWS V14.01,2013-02-05 00:00:00,
2013-02-04 19:05:00,24.8,-11.6,29.91,SW,236,6.7,8.3,19,0.00,,---,0.00,VWS V14.01,2013-02-05 00:05:00,
2013-02-04 19:10:00,24.8,-11.6,29.91,NW,313,6.7,8.7,19,0.00,,---,0.00,VWS V14.01,2013-02-05 00:10:00,
2013-02-04 19:15:00,24.6,-11.8,29.91,WNW,283,11.0,11.6,19,0.00,,---,0.00,VWS V14.01,2013-02-05 00:15:00,
2013-02-04 19:20:00,24.6,-11.8,29.91,West,278,2.7,4.0,19,0.00,,---,0.00,VWS V14.01,2013-02-05 00:20:00,
2013-02-04 19:25:00,24.4,-11.9,29.91,WNW,295,6.9,9.2,19,0.00,,---,0.00,VWS V14.01,2013-02-05 00:25:00,
2013-02-04 19:30:00,24.3,-12.1,29.91,WNW,300,4.0,6.7,19,0.00,,---,0.00,VWS V14.01,2013-02-05 00:30:00,
2013-02-04 19:36:00,24.3,-12.1,29.91,WSW,251,11.0,11.2,19,0.00,,---,0.00,VWS V14.01,2013-02-05 00:36:00,
2013-02-04 19:41:00,24.3,-12.1,29.91,NW,315,0.0,7.8,19,0.00,,---,0.00,VWS V14.01,2013-02-05 00:41:00,
2013-02-04 19:46:00,24.1,-12.2,29.91,NNW,333,4.0,6.9,19,0.00,,---,0.00,VWS V14.01,2013-02-05 00:46:00,
2013-02-04 19:51:00,24.1,-12.2,29.91,NW,304,3.6,4.9,19,0.00,,---,0.00,VWS V14.01,2013-02-05 00:51:00,
2013-02-04 19:56:00,24.1,-12.2,29.91,WNW,288,3.1,7.4,19,0.00,,---,0.00,VWS V14.01,2013-02-05 00:56:00,
2013-02-04 20:01:00,23.9,-12.4,29.91,West,279,4.5,5.4,19,0.00,,---,0.00,VWS V14.01,2013-02-05 01:01:00,
2013-02-04 20:06:00,23.9,-12.4,29.94,WNW,284,3.1,3.1,19,0.00,,---,0.00,VWS V14.01,2013-02-05 01:06:00,
2013-02-04 20:11:00,23.9,-12.4,29.94,WNW,284,0.0,0.0,19,0.00,,---,0.00,VWS V14.01,2013-02-05 01:11:00,
2013-02-04 20:16:00,23.9,-12.4,29.94,WNW,283,4.0,5.8,19,0.00,,---,0.00,VWS V14.01,2013-02-05 01:16:00,
2013-02-04 20:21:00,23.9,-12.4,29.91,WNW,283,4.0,4.5,19,0.00,,---,0.00,VWS V14.01,2013-02-05 01:21:00,
2013-02-04 20:26:00,23.9,-12.4,29.91,WNW,285,5.8,6.3,19,0.00,,---,0.00,VWS V14.01,2013-02-05 01:26:00,
2013-02-04 20:31:00,23.9,-12.4,29.91,SW,233,0.0,3.6,19,0.00,,---,0.00,VWS V14.01,2013-02-05 01:31:00,
2013-02-04 20:36:00,24.1,-12.2,29.91,SW,233,2.7,4.0,19,0.00,,---,0.00,VWS V14.01,2013-02-05 01:36:00,
2013-02-04 20:41:00,24.1,-12.2,29.91,SW,233,0.0,2.7,19,0.00,,---,0.00,VWS V14.01,2013-02-05 01:41:00,
2013-02-04 20:46:00,24.1,-12.2,29.91,SW,232,0.0,3.6,19,0.00,,---,0.00,VWS V14.01,2013-02-05 01:46:00,
2013-02-04 20:51:00,24.1,-12.2,29.94,SW,232,0.0,3.6,19,0.00,,---,0.00,VWS V14.01,2013-02-05 01:51:00,
2013-02-04 20:56:00,23.9,-12.4,29.94,SW,233,4.0,4.9,19,0.00,,---,0.00,VWS V14.01,2013-02-05 01:56:00,
2013-02-04 21:01:00,23.9,-12.4,29.94,West,260,5.8,6.9,19,0.00,,---,0.00,VWS V14.01,2013-02-05 02:01:00,
2013-02-04 21:06:00,23.9,-11.3,29.94,WSW,246,2.7,5.8,20,0.00,,---,0.00,VWS V14.01,2013-02-05 02:06:00,
2013-02-04 21:11:00,23.9,-11.3,29.94,WSW,248,0.0,3.1,20,0.00,,---,0.00,VWS V14.01,2013-02-05 02:11:00,
2013-02-04 21:16:00,23.7,-11.5,29.94,WSW,248,0.0,2.7,20,0.00,,---,0.00,VWS V14.01,2013-02-05 02:16:00,
2013-02-04 21:21:00,23.5,-11.6,29.94,WSW,248,3.1,4.0,20,0.00,,---,0.00,VWS V14.01,2013-02-05 02:21:00,
2013-02-04 21:26:00,23.4,-11.8,29.94,WSW,248,0.0,0.0,20,0.00,,---,0.00,VWS V14.01,2013-02-05 02:26:00,
2013-02-04 21:31:00,23.2,-11.9,29.94,WSW,248,3.1,3.1,20,0.00,,---,0.00,VWS V14.01,2013-02-05 02:31:00,
2013-02-04 21:36:00,23.0,-12.1,29.94,WSW,248,0.0,3.1,20,0.00,,---,0.00,VWS V14.01,2013-02-05 02:36:00,
2013-02-04 21:41:00,22.6,-12.4,29.94,WSW,248,0.0,0.0,20,0.00,,---,0.00,VWS V14.01,2013-02-05 02:41:00,
2013-02-04 21:46:00,22.3,-12.7,29.94,WSW,248,0.0,0.0,20,0.00,,---,0.00,VWS V14.01,2013-02-05 02:46:00,
2013-02-04 21:51:00,22.1,-12.8,29.94,WSW,248,0.0,0.0,20,0.00,,---,0.00,VWS V14.01,2013-02-05 02:51:00,
2013-02-04 21:56:00,21.7,-13.1,29.94,WSW,248,0.0,0.0,20,0.00,,---,0.00,VWS V14.01,2013-02-05 02:56:00,
2013-02-04 22:01:00,21.6,-13.3,29.94,WSW,248,0.0,0.0,20,0.00,,---,0.00,VWS V14.01,2013-02-05 03:01:00,
2013-02-04 22:06:00,21.6,-13.3,29.94,WSW,248,0.0,0.0,20,0.00,,---,0.00,VWS V14.01,2013-02-05 03:06:00,
2013-02-04 22:11:00,21.6,-13.3,29.94,WSW,248,0.0,4.5,20,0.00,,---,0.00,VWS V14.01,2013-02-05 03:11:00,
2013-02-04 22:16:00,21.4,-13.4,29.94,WSW,248,0.0,0.0,20,0.00,,---,0.00,VWS V14.01,2013-02-05 03:16:00,
2013-02-04 22:21:00,21.4,-13.4,29.94,WSW,248,0.0,0.0,20,0.00,,---,0.00,VWS V14.01,2013-02-05 03:21:00,
2013-02-04 22:26:00,21.4,-13.4,29.94,WSW,248,0.0,0.0,20,0.00,,---,0.00,VWS V14.01,2013-02-05 03:26:00,
2013-02-04 22:31:00,21.4,-13.4,29.94,WSW,248,0.0,0.0,20,0.00,,---,0.00,VWS V14.01,2013-02-05 03:31:00,
2013-02-04 22:36:00,21.6,-13.3,29.94,WSW,248,0.0,0.0,20,0.00,,---,0.00,VWS V14.01,2013-02-05 03:36:00,
2013-02-04 22:41:00,21.4,-13.4,29.94,WSW,248,0.0,0.0,20,0.00,,---,0.00,VWS V14.01,2013-02-05 03:41:00,
2013-02-04 22:46:00,21.4,-13.4,29.94,WSW,248,0.0,0.0,20,0.00,,---,0.00,VWS V14.01,2013-02-05 03:46:00,
2013-02-04 22:51:00,21.2,-13.6,29.94,WSW,248,0.0,0.0,20,0.00,,---,0.00,VWS V14.01,2013-02-05 03:51:00,
2013-02-04 22:56:00,20.8,-13.9,29.94,WSW,248,0.0,0.0,20,0.00,,---,0.00,VWS V14.01,2013-02-05 03:56:00,
2013-02-04 23:01:00,20.8,-13.9,29.94,WSW,248,0.0,0.0,20,0.00,,---,0.00,VWS V14.01,2013-02-05 04:01:00,
2013-02-04 23:06:00,20.8,-13.9,29.94,WSW,248,0.0,0.0,20,0.00,,---,0.00,VWS V14.01,2013-02-05 04:06:00,
2013-02-04 23:12:00,21.0,-13.8,29.94,WSW,248,0.0,0.0,20,0.00,,---,0.00,VWS V14.01,2013-02-05 04:12:00,
2013-02-04 23:17:00,20.8,-12.0,29.94,WSW,248,0.0,0.0,22,0.00,,---,0.00,VWS V14.01,2013-02-05 04:17:00,
2013-02-04 23:21:00,20.8,-12.0,29.94,WSW,248,0.0,0.0,22,0.00,,---,0.00,VWS V14.01,2013-02-05 04:21:00,
2013-02-04 23:27:00,20.8,-12.0,29.94,WSW,248,0.0,0.0,22,0.00,,---,0.00,VWS V14.01,2013-02-05 04:27:00,
2013-02-04 23:31:00,20.8,-12.0,29.94,WSW,248,0.0,0.0,22,0.00,,---,0.00,VWS V14.01,2013-02-05 04:31:00,
2013-02-04 23:37:00,20.7,-12.2,29.94,WSW,248,0.0,0.0,22,0.00,,---,0.00,VWS V14.01,2013-02-05 04:37:00,
2013-02-04 23:42:00,20.7,-12.2,29.94,WSW,248,0.0,0.0,22,0.00,,---,0.00,VWS V14.01,2013-02-05 04:42:00,
2013-02-04 23:47:00,20.5,-12.3,29.94,WSW,248,0.0,0.0,22,0.00,,---,0.00,VWS V14.01,2013-02-05 04:47:00,
2013-02-04 23:52:00,20.5,-12.3,29.94,WSW,248,0.0,0.0,22,0.00,,---,0.00,VWS V14.01,2013-02-05 04:52:00,
2013-02-04 23:57:00,20.3,-11.6,29.94,WSW,248,0.0,0.0,23,0.00,,---,0.00,VWS V14.01,2013-02-05 04:57:00,